Terminal Aerodrome Forecast
Issued by NWS

Home | Current Version | Previous Version | Text Only | Print | Product List | Glossary On
Versions: 1 2 3 4 5 6 7 8 9 10 11 12 13 14
000
FTUS44 KMAF 280221 AAB
TAFCNM
TAF AMD
KCNM 280221Z 2802/2824 24005KT P6SM BKN200
     FM281200 17004KT P6SM OVC120
     FM281600 13007G17KT P6SM SCT060 OVC250=

USA.gov is the U.S. government's official web portal to all federal, state and local government web resources and services.